Madison, Maryland
Current Conditions -  °F | °C
As of 5:17 AM on Saturday 22 Nov 2014 (Local Time) from KCGE Reporting Station
Clear Clear  
Wind Chill: 23°   Ceiling: Unl
Heat Index: 23°   Visibility: 10mi
Dew Point: 19°   Wind: 0mph
Humidity: 86%   Direction: NA
Pressure: 30.54"   Gusts: NA
Location:  38.51°N, 76.22°W
Report Text: KCGE 221017Z AUTO 00000KT 10SM CLR M05/M07 A3054 RMK AO1
Loading
Personal Weather Stations






























Interactive Weather Map New forecast layout! Learn more

10-Day Weather Forecast

Advertisements
Track Severe Weather on mobile